createdAt,value
2022-10-02T00:01:33.519Z,13.90
2022-10-02T00:04:04.431Z,13.90
2022-10-02T00:06:39.875Z,13.90
2022-10-02T00:09:12.080Z,13.90
2022-10-02T00:11:46.441Z,13.90
2022-10-02T00:14:18.135Z,14.00
2022-10-02T00:16:49.221Z,14.00
2022-10-02T00:19:19.089Z,14.00
2022-10-02T00:22:00.457Z,14.00
2022-10-02T00:24:34.182Z,14.00
2022-10-02T00:27:15.326Z,14.00
2022-10-02T00:29:50.657Z,14.00
2022-10-02T00:32:29.660Z,14.00
2022-10-02T00:35:19.541Z,14.10
2022-10-02T00:37:55.255Z,14.10
2022-10-02T00:40:38.804Z,14.10
2022-10-02T00:43:18.395Z,14.20
2022-10-02T00:46:12.210Z,14.20
2022-10-02T00:49:04.388Z,14.20
2022-10-02T00:51:52.978Z,14.20
2022-10-02T00:54:32.488Z,14.20
2022-10-02T00:57:10.100Z,14.20
2022-10-02T00:59:59.307Z,14.20
2022-10-02T01:02:55.973Z,14.20
2022-10-02T01:05:23.987Z,14.20
2022-10-02T01:07:55.250Z,14.20
2022-10-02T01:10:25.390Z,14.20
2022-10-02T01:12:54.287Z,14.20
2022-10-02T01:15:28.257Z,14.10
2022-10-02T01:17:57.293Z,14.10
2022-10-02T01:20:30.332Z,14.10
2022-10-02T01:23:03.928Z,14.10
2022-10-02T01:25:33.364Z,14.10
2022-10-02T01:28:01.501Z,14.10
2022-10-02T01:30:30.708Z,14.10
2022-10-02T01:33:01.575Z,14.10
2022-10-02T01:35:32.879Z,14.10
2022-10-02T01:38:03.232Z,14.10
2022-10-02T01:40:34.242Z,14.10
2022-10-02T01:43:04.916Z,14.10
2022-10-02T01:45:53.234Z,14.10
2022-10-02T01:48:30.640Z,14.20
2022-10-02T01:51:23.071Z,14.30
2022-10-02T01:53:57.459Z,14.30
2022-10-02T01:56:34.840Z,14.20
2022-10-02T01:59:13.528Z,14.20
2022-10-02T02:01:49.751Z,14.20
2022-10-02T02:04:24.743Z,14.30
2022-10-02T02:06:58.225Z,14.30
2022-10-02T02:09:33.478Z,14.30
2022-10-02T02:12:11.010Z,14.30
2022-10-02T02:14:44.238Z,14.40
2022-10-02T02:17:16.280Z,14.50
2022-10-02T02:19:48.091Z,14.50
2022-10-02T02:22:21.712Z,14.40
2022-10-02T02:24:53.699Z,14.40
2022-10-02T02:27:26.323Z,14.40
2022-10-02T02:29:57.912Z,14.50
2022-10-02T02:32:30.085Z,14.50
2022-10-02T02:35:03.300Z,14.60
2022-10-02T02:37:35.039Z,14.60
2022-10-02T02:40:07.016Z,14.60
2022-10-02T02:42:42.533Z,14.60
2022-10-02T02:45:14.803Z,14.60
2022-10-02T02:47:48.734Z,14.60
2022-10-02T02:50:22.683Z,14.50
2022-10-02T02:52:55.124Z,14.60
2022-10-02T02:55:27.326Z,14.50
2022-10-02T02:58:03.356Z,14.50
2022-10-02T03:00:31.366Z,14.50
2022-10-02T03:02:59.400Z,14.50
2022-10-02T03:05:29.518Z,14.50
2022-10-02T03:08:00.723Z,14.50
2022-10-02T03:10:40.603Z,14.50
2022-10-02T03:13:26.005Z,14.50
2022-10-02T03:16:06.579Z,14.50
2022-10-02T03:18:57.643Z,14.50
2022-10-02T03:21:29.677Z,14.50
2022-10-02T03:24:04.582Z,14.60
2022-10-02T03:26:40.014Z,14.50
2022-10-02T03:29:14.731Z,14.60
2022-10-02T03:31:43.542Z,14.60
2022-10-02T03:34:12.806Z,14.60
2022-10-02T03:36:40.990Z,14.70
2022-10-02T03:39:26.010Z,14.70
2022-10-02T03:41:54.752Z,14.60
2022-10-02T03:44:24.041Z,14.70
2022-10-02T03:46:52.020Z,14.60
2022-10-02T03:49:19.975Z,14.60
2022-10-02T03:51:47.789Z,14.70
2022-10-02T03:54:19.374Z,14.80
2022-10-02T03:56:56.578Z,14.80
2022-10-02T03:59:39.571Z,14.80
2022-10-02T04:02:12.371Z,14.90
2022-10-02T04:04:46.339Z,14.90
2022-10-02T04:07:20.231Z,14.80
2022-10-02T04:09:55.926Z,14.80
2022-10-02T04:12:27.974Z,14.80
2022-10-02T04:15:02.038Z,14.80
2022-10-02T04:17:36.227Z,14.80
2022-10-02T04:20:10.792Z,14.80
2022-10-02T04:22:42.641Z,14.80
2022-10-02T04:25:16.934Z,14.90
2022-10-02T04:27:51.411Z,14.90
2022-10-02T04:30:21.400Z,15.00
2022-10-02T04:32:49.524Z,14.90
2022-10-02T04:35:20.049Z,14.90
2022-10-02T04:38:11.852Z,14.80
2022-10-02T04:40:55.515Z,14.70
2022-10-02T04:43:37.927Z,14.70
2022-10-02T04:46:19.172Z,14.60
2022-10-02T04:49:27.234Z,14.50
2022-10-02T04:52:24.628Z,14.50
2022-10-02T04:55:16.780Z,14.50
2022-10-02T04:58:02.430Z,14.40
2022-10-02T05:00:37.205Z,14.40
2022-10-02T05:03:20.583Z,14.30
2022-10-02T05:06:15.921Z,14.30
2022-10-02T05:08:57.389Z,14.30
2022-10-02T05:11:53.662Z,14.30
2022-10-02T05:14:55.525Z,14.30
2022-10-02T05:17:43.158Z,14.30
2022-10-02T05:20:39.161Z,14.30
2022-10-02T05:23:29.447Z,14.30
2022-10-02T05:26:19.396Z,14.30
2022-10-02T05:29:08.658Z,14.30
2022-10-02T05:31:49.225Z,14.30
2022-10-02T05:34:29.168Z,14.30
2022-10-02T05:37:11.179Z,14.30
2022-10-02T05:39:48.220Z,14.30
2022-10-02T05:42:21.878Z,14.30
2022-10-02T05:44:55.143Z,14.30
2022-10-02T05:47:29.858Z,14.30
2022-10-02T05:50:01.512Z,14.30
2022-10-02T05:52:38.175Z,14.30
2022-10-02T05:55:15.575Z,14.40
2022-10-02T05:57:47.347Z,14.40
2022-10-02T06:00:26.681Z,14.50
2022-10-02T06:03:00.950Z,14.50
2022-10-02T06:05:45.338Z,14.50
2022-10-02T06:08:18.897Z,14.50
2022-10-02T06:10:50.835Z,14.50
2022-10-02T06:13:25.681Z,14.50
2022-10-02T06:16:02.051Z,14.40
2022-10-02T06:18:34.491Z,14.40
2022-10-02T06:21:08.644Z,14.40
2022-10-02T06:23:43.750Z,14.40
2022-10-02T06:26:17.426Z,14.40
2022-10-02T06:28:52.085Z,14.40
2022-10-02T06:31:24.063Z,14.40
2022-10-02T06:33:53.224Z,14.40
2022-10-02T06:36:42.787Z,14.40
2022-10-02T06:39:26.122Z,14.40
2022-10-02T06:42:03.684Z,14.40
2022-10-02T06:44:37.610Z,14.40
2022-10-02T06:47:19.140Z,14.50
2022-10-02T06:50:03.053Z,14.50
2022-10-02T06:52:41.074Z,14.50
2022-10-02T06:55:31.449Z,14.50
2022-10-02T06:58:11.447Z,14.50
2022-10-02T07:00:47.779Z,14.50
2022-10-02T07:03:53.780Z,14.50
2022-10-02T07:06:31.221Z,14.60
2022-10-02T07:09:16.364Z,14.60
2022-10-02T07:11:53.858Z,14.60
2022-10-02T07:14:41.014Z,14.60
2022-10-02T07:17:22.630Z,14.70
2022-10-02T07:20:15.164Z,14.70
2022-10-02T07:23:07.494Z,14.70
2022-10-02T07:26:11.652Z,14.70
2022-10-02T07:28:46.454Z,14.70
2022-10-02T07:31:23.033Z,14.70
2022-10-02T07:34:13.059Z,14.70
2022-10-02T07:36:52.934Z,14.70
2022-10-02T07:39:44.110Z,14.70
2022-10-02T07:42:39.819Z,14.80
2022-10-02T07:45:28.958Z,14.70
2022-10-02T07:48:15.796Z,14.70
2022-10-02T07:51:00.840Z,14.70
2022-10-02T07:53:39.070Z,14.80
2022-10-02T07:56:09.694Z,14.80
2022-10-02T07:58:42.880Z,14.70
2022-10-02T08:01:14.673Z,14.70
2022-10-02T08:03:48.650Z,14.70
2022-10-02T08:06:17.468Z,14.70
2022-10-02T08:08:51.884Z,14.80
2022-10-02T08:11:24.322Z,14.70
2022-10-02T08:13:58.249Z,14.80
2022-10-02T08:16:37.736Z,14.80
2022-10-02T08:19:12.267Z,14.80
2022-10-02T08:21:44.600Z,14.80
2022-10-02T08:24:15.843Z,14.80
2022-10-02T08:26:49.687Z,14.80
2022-10-02T08:29:22.819Z,14.90
2022-10-02T08:31:53.952Z,14.90
2022-10-02T08:34:23.559Z,14.90
2022-10-02T08:37:17.779Z,15.00
2022-10-02T08:40:16.062Z,15.00
2022-10-02T08:43:34.863Z,15.10
2022-10-02T08:46:33.610Z,15.10
2022-10-02T08:49:37.024Z,15.10
2022-10-02T08:52:37.375Z,15.00
2022-10-02T08:55:28.746Z,15.00
2022-10-02T08:58:19.550Z,15.00
2022-10-02T09:01:10.925Z,15.10
2022-10-02T09:04:12.931Z,15.10
2022-10-02T09:07:28.220Z,15.10
2022-10-02T09:10:29.163Z,15.00
2022-10-02T09:13:24.366Z,15.10
2022-10-02T09:16:06.733Z,15.10
2022-10-02T09:18:51.673Z,15.00
2022-10-02T09:21:48.378Z,15.00
2022-10-02T09:24:53.616Z,15.00
2022-10-02T09:28:04.701Z,15.00
2022-10-02T09:31:03.774Z,15.10
2022-10-02T09:34:16.028Z,15.00
2022-10-02T09:37:10.462Z,15.00
2022-10-02T09:40:25.692Z,15.10
2022-10-02T09:43:24.709Z,15.20
2022-10-02T09:46:21.604Z,15.20
2022-10-02T09:49:25.426Z,15.30
2022-10-02T09:52:27.338Z,15.30
2022-10-02T09:55:25.807Z,15.50
2022-10-02T09:58:26.468Z,15.60
2022-10-02T10:01:17.399Z,15.80
2022-10-02T10:04:16.301Z,15.90
2022-10-02T10:07:18.896Z,16.00
2022-10-02T10:10:21.774Z,16.20
2022-10-02T10:13:20.954Z,16.30
2022-10-02T10:16:29.612Z,16.50
2022-10-02T10:19:46.794Z,16.50
2022-10-02T10:22:54.354Z,16.70
2022-10-02T10:26:02.859Z,16.80
2022-10-02T10:28:57.961Z,16.70
2022-10-02T10:32:12.608Z,16.50
2022-10-02T10:35:16.512Z,16.50
2022-10-02T10:38:13.821Z,16.60
2022-10-02T10:41:05.574Z,16.50
2022-10-02T10:44:12.321Z,16.40
2022-10-02T10:47:10.908Z,16.40
2022-10-02T10:50:02.363Z,16.40
2022-10-02T10:52:52.568Z,16.70
2022-10-02T10:55:37.272Z,16.90
2022-10-02T10:58:16.305Z,16.90
2022-10-02T11:01:00.314Z,17.00
2022-10-02T11:03:46.311Z,17.30
2022-10-02T11:06:54.111Z,17.30
2022-10-02T11:10:04.684Z,17.50
2022-10-02T11:13:08.859Z,17.70
2022-10-02T11:16:00.603Z,17.80
2022-10-02T11:18:48.215Z,18.10
2022-10-02T11:21:43.990Z,18.40
2022-10-02T11:24:31.241Z,19.10
2022-10-02T11:27:15.276Z,20.20
2022-10-02T11:30:06.166Z,20.10
2022-10-02T11:33:03.963Z,20.20
2022-10-02T11:35:48.947Z,20.60
2022-10-02T11:38:49.895Z,21.50
2022-10-02T11:41:46.705Z,21.30
2022-10-02T11:44:24.686Z,20.40
2022-10-02T11:47:18.493Z,20.10
2022-10-02T11:50:20.992Z,19.80
2022-10-02T11:53:07.743Z,19.50
2022-10-02T11:55:49.253Z,19.60
2022-10-02T11:58:26.560Z,19.90
2022-10-02T12:01:22.455Z,21.20
2022-10-02T12:03:58.655Z,22.30
2022-10-02T12:06:45.461Z,23.30
2022-10-02T12:09:23.766Z,25.30
2022-10-02T12:12:00.732Z,26.30
2022-10-02T12:14:38.560Z,26.30
2022-10-02T12:17:18.934Z,27.20
2022-10-02T12:20:15.771Z,27.50
2022-10-02T12:23:10.074Z,27.40
2022-10-02T12:26:05.838Z,29.00
2022-10-02T12:28:39.515Z,29.70
2022-10-02T12:31:15.054Z,29.40
2022-10-02T12:33:56.294Z,28.10
2022-10-02T12:36:33.873Z,26.80
2022-10-02T12:39:22.703Z,27.20
2022-10-02T12:42:04.648Z,28.10
2022-10-02T12:44:58.153Z,29.10
2022-10-02T12:47:49.171Z,29.90
2022-10-02T12:50:28.027Z,31.40
2022-10-02T12:53:44.145Z,32.70
2022-10-02T12:56:46.916Z,34.40
2022-10-02T12:59:21.739Z,35.30
2022-10-02T13:02:37.294Z,35.90
2022-10-02T13:05:47.083Z,36.00
2022-10-02T13:08:48.249Z,36.20
2022-10-02T13:11:27.726Z,35.80
2022-10-02T13:14:15.475Z,34.80
2022-10-02T13:17:10.040Z,33.90
2022-10-02T13:19:53.687Z,32.80
2022-10-02T13:22:32.308Z,32.20
2022-10-02T13:25:19.614Z,31.60
2022-10-02T13:27:59.435Z,31.30
2022-10-02T13:30:30.883Z,31.20
2022-10-02T13:33:22.981Z,30.90
2022-10-02T13:36:07.827Z,30.30
2022-10-02T13:39:17.553Z,29.70
2022-10-02T13:41:59.001Z,29.00
2022-10-02T13:44:39.278Z,28.60
2022-10-02T13:47:28.362Z,28.50
2022-10-02T13:50:16.744Z,28.40
2022-10-02T13:52:57.140Z,28.50
2022-10-02T13:55:27.322Z,28.60
2022-10-02T13:58:08.570Z,28.60
2022-10-02T14:01:07.103Z,28.60
2022-10-02T14:03:49.398Z,28.60
2022-10-02T14:06:25.514Z,28.30
2022-10-02T14:09:11.323Z,28.20
2022-10-02T14:11:56.284Z,28.30
2022-10-02T14:14:37.649Z,28.10
2022-10-02T14:17:16.739Z,27.50
2022-10-02T14:19:58.291Z,26.50
2022-10-02T14:22:51.665Z,25.70
2022-10-02T14:25:28.321Z,25.20
2022-10-02T14:28:26.990Z,24.70
2022-10-02T14:31:11.943Z,24.40
2022-10-02T14:33:56.047Z,23.90
2022-10-02T14:36:32.738Z,23.80
2022-10-02T14:39:26.262Z,23.70
2022-10-02T14:42:15.509Z,23.70
2022-10-02T14:45:08.207Z,23.40
2022-10-02T14:48:00.892Z,23.10
2022-10-02T14:50:43.440Z,22.80
2022-10-02T14:53:49.501Z,22.50
2022-10-02T14:56:44.027Z,22.30
2022-10-02T14:59:40.013Z,22.30
2022-10-02T15:02:28.078Z,22.40
2022-10-02T15:05:04.762Z,22.60
2022-10-02T15:07:36.048Z,22.70
2022-10-02T15:10:15.175Z,22.80
2022-10-02T15:12:49.820Z,23.00
2022-10-02T15:15:21.544Z,23.10
2022-10-02T15:17:55.954Z,23.30
2022-10-02T15:20:31.684Z,23.40
2022-10-02T15:23:01.851Z,23.40
2022-10-02T15:25:55.684Z,23.30
2022-10-02T15:28:37.204Z,23.10
2022-10-02T15:31:12.691Z,22.90
2022-10-02T15:33:47.772Z,22.80
2022-10-02T15:36:35.527Z,22.50
2022-10-02T15:39:33.465Z,22.20
2022-10-02T15:42:09.190Z,22.10
2022-10-02T15:45:06.152Z,22.00
2022-10-02T15:47:49.506Z,21.80
2022-10-02T15:50:42.283Z,21.70
2022-10-02T15:53:31.120Z,21.50
2022-10-02T15:56:17.126Z,21.40
2022-10-02T15:59:05.448Z,21.20
2022-10-02T16:01:49.846Z,21.10
2022-10-02T16:04:28.213Z,21.00
2022-10-02T16:07:40.735Z,21.00
2022-10-02T16:10:20.527Z,20.90
2022-10-02T16:13:06.662Z,20.80
2022-10-02T16:15:51.038Z,20.70
2022-10-02T16:18:34.022Z,20.60
2022-10-02T16:21:34.432Z,20.40
2022-10-02T16:24:27.095Z,20.50
2022-10-02T16:27:19.212Z,20.50
2022-10-02T16:30:04.709Z,20.50
2022-10-02T16:32:40.258Z,20.40
2022-10-02T16:35:47.086Z,20.30
2022-10-02T16:38:22.360Z,20.20
2022-10-02T16:40:59.324Z,20.10
2022-10-02T16:43:54.213Z,20.00
2022-10-02T16:46:29.331Z,19.80
2022-10-02T16:49:03.997Z,19.70
2022-10-02T16:51:50.502Z,19.70
2022-10-02T16:54:25.576Z,19.60
2022-10-02T16:57:02.913Z,19.50
2022-10-02T16:59:43.015Z,19.40
2022-10-02T17:02:21.982Z,19.30
2022-10-02T17:05:00.124Z,19.20
2022-10-02T17:07:36.194Z,19.10
2022-10-02T17:10:19.556Z,19.10
2022-10-02T17:12:53.688Z,19.00
2022-10-02T17:15:34.046Z,18.80
2022-10-02T17:18:13.835Z,18.70
2022-10-02T17:20:47.288Z,18.60
2022-10-02T17:23:26.232Z,18.60
2022-10-02T17:26:02.485Z,18.50
2022-10-02T17:28:39.076Z,18.40
2022-10-02T17:31:34.596Z,18.40
2022-10-02T17:34:17.672Z,18.30
2022-10-02T17:36:54.436Z,18.20
2022-10-02T17:39:48.992Z,18.20
2022-10-02T17:42:28.224Z,18.10
2022-10-02T17:45:07.146Z,18.10
2022-10-02T17:47:48.931Z,18.00
2022-10-02T17:50:35.192Z,18.00
2022-10-02T17:53:32.389Z,18.00
2022-10-02T17:56:35.005Z,18.00
2022-10-02T17:59:38.196Z,17.90
2022-10-02T18:02:19.977Z,17.90
2022-10-02T18:05:14.200Z,17.90
2022-10-02T18:07:58.757Z,17.80
2022-10-02T18:10:36.068Z,17.80
2022-10-02T18:13:25.916Z,17.80
2022-10-02T18:16:06.719Z,17.80
2022-10-02T18:18:41.042Z,17.70
2022-10-02T18:21:19.231Z,17.70
2022-10-02T18:24:07.113Z,17.60
2022-10-02T18:26:51.832Z,17.60
2022-10-02T18:29:34.475Z,17.50
2022-10-02T18:32:27.095Z,17.50
2022-10-02T18:35:27.226Z,17.40
2022-10-02T18:38:19.230Z,17.30
2022-10-02T18:40:55.750Z,17.30
2022-10-02T18:43:47.761Z,17.20
2022-10-02T18:46:28.346Z,17.20
2022-10-02T18:49:15.733Z,17.20
2022-10-02T18:52:19.217Z,17.10
2022-10-02T18:55:03.321Z,17.00
2022-10-02T18:57:43.447Z,17.00
2022-10-02T19:00:18.787Z,17.00
2022-10-02T19:03:00.659Z,16.90
2022-10-02T19:05:33.323Z,16.90
2022-10-02T19:08:18.068Z,16.80
2022-10-02T19:10:50.177Z,16.70
2022-10-02T19:13:27.111Z,16.70
2022-10-02T19:15:58.235Z,16.60
2022-10-02T19:18:30.548Z,16.60
2022-10-02T19:21:02.812Z,16.50
2022-10-02T19:23:36.680Z,16.50
2022-10-02T19:26:15.710Z,16.50
2022-10-02T19:28:48.050Z,16.40
2022-10-02T19:31:22.562Z,16.40
2022-10-02T19:33:54.744Z,16.40
2022-10-02T19:36:27.245Z,16.30
2022-10-02T19:39:01.531Z,16.30
2022-10-02T19:41:34.087Z,16.30
2022-10-02T19:44:06.935Z,16.30
2022-10-02T19:46:40.101Z,16.20
2022-10-02T19:49:09.870Z,16.20
2022-10-02T19:51:45.732Z,16.10
2022-10-02T19:54:20.831Z,16.10
2022-10-02T19:56:50.296Z,16.00
2022-10-02T19:59:20.241Z,16.00
2022-10-02T20:01:53.070Z,16.00
2022-10-02T20:04:23.101Z,15.90
2022-10-02T20:06:56.530Z,15.90
2022-10-02T20:09:33.458Z,15.90
2022-10-02T20:12:08.398Z,15.80
2022-10-02T20:14:40.827Z,15.70
2022-10-02T20:17:10.056Z,15.70
2022-10-02T20:19:45.153Z,15.70
2022-10-02T20:22:24.003Z,15.70
2022-10-02T20:25:31.207Z,15.60
2022-10-02T20:28:05.697Z,15.60
2022-10-02T20:30:45.000Z,15.50
2022-10-02T20:33:20.683Z,15.50
2022-10-02T20:35:53.362Z,15.50
2022-10-02T20:38:26.178Z,15.40
2022-10-02T20:40:56.371Z,15.40
2022-10-02T20:43:32.626Z,15.30
2022-10-02T20:46:22.858Z,15.30
2022-10-02T20:49:16.775Z,15.20
2022-10-02T20:52:20.344Z,15.10
2022-10-02T20:54:55.147Z,15.10
2022-10-02T20:58:02.534Z,15.10
2022-10-02T21:00:44.093Z,15.10
2022-10-02T21:03:31.838Z,15.00
2022-10-02T21:06:31.396Z,15.00
2022-10-02T21:09:35.557Z,15.00
2022-10-02T21:12:30.892Z,14.90
2022-10-02T21:15:43.453Z,14.80
2022-10-02T21:18:49.915Z,14.80
2022-10-02T21:21:53.739Z,14.70
2022-10-02T21:25:01.882Z,14.60
2022-10-02T21:28:02.465Z,14.60
2022-10-02T21:30:42.056Z,14.50
2022-10-02T21:33:21.546Z,14.50
2022-10-02T21:35:55.955Z,14.40
2022-10-02T21:38:45.352Z,14.40
2022-10-02T21:41:52.458Z,14.40
2022-10-02T21:44:53.598Z,14.30
2022-10-02T21:47:49.549Z,14.30
2022-10-02T21:50:50.104Z,14.30
2022-10-02T21:53:47.177Z,14.30
2022-10-02T21:57:01.007Z,14.20
2022-10-02T22:00:06.975Z,14.20
2022-10-02T22:03:29.089Z,14.20
2022-10-02T22:06:22.045Z,14.10
2022-10-02T22:09:13.304Z,14.10
2022-10-02T22:11:58.305Z,14.10
2022-10-02T22:14:36.375Z,14.10
2022-10-02T22:17:21.429Z,14.00
2022-10-02T22:20:24.633Z,14.00
2022-10-02T22:23:08.491Z,14.00
2022-10-02T22:25:50.575Z,14.00
2022-10-02T22:28:35.543Z,14.00
2022-10-02T22:31:40.963Z,13.90
2022-10-02T22:34:25.707Z,13.90
2022-10-02T22:37:16.175Z,13.90
2022-10-02T22:39:49.977Z,13.90
2022-10-02T22:42:23.982Z,13.80
2022-10-02T22:44:55.218Z,13.80
2022-10-02T22:47:38.596Z,13.80
2022-10-02T22:50:12.528Z,13.80
2022-10-02T22:52:47.492Z,13.70
2022-10-02T22:55:23.769Z,13.70
2022-10-02T22:57:57.744Z,13.70
2022-10-02T23:00:28.104Z,13.60
2022-10-02T23:03:02.582Z,13.60
2022-10-02T23:05:37.587Z,13.60
2022-10-02T23:08:18.863Z,13.50
2022-10-02T23:10:53.062Z,13.50
2022-10-02T23:13:26.584Z,13.50
2022-10-02T23:16:02.102Z,13.40
2022-10-02T23:18:40.966Z,13.40
2022-10-02T23:21:29.588Z,13.30
2022-10-02T23:24:03.259Z,13.30
2022-10-02T23:26:36.905Z,13.30
2022-10-02T23:29:17.743Z,13.30
2022-10-02T23:31:53.789Z,13.20
2022-10-02T23:34:33.821Z,13.30
2022-10-02T23:37:13.565Z,13.30
2022-10-02T23:39:48.110Z,13.20
2022-10-02T23:42:26.532Z,13.20
2022-10-02T23:45:00.719Z,13.20
2022-10-02T23:47:37.175Z,13.10
2022-10-02T23:50:19.691Z,13.10
2022-10-02T23:53:11.188Z,13.10
2022-10-02T23:55:55.910Z,13.00
2022-10-02T23:58:48.615Z,13.00
